createdAt,value
2023-04-29T00:04:33.967Z,11.98
2023-04-29T00:14:36.007Z,13.68
2023-04-29T00:24:37.921Z,13.48
2023-04-29T00:34:41.765Z,13.48
2023-04-29T00:44:43.725Z,15.15
2023-04-29T00:54:45.691Z,13.70
2023-04-29T01:04:48.134Z,14.55
2023-04-29T01:15:06.602Z,13.43
2023-04-29T01:25:10.249Z,14.57
2023-04-29T01:35:45.079Z,13.73
2023-04-29T01:45:49.001Z,13.63
2023-04-29T01:55:51.927Z,13.75
2023-04-29T02:06:00.011Z,14.63
2023-04-29T02:16:14.447Z,13.13
2023-04-29T02:26:20.395Z,12.90
2023-04-29T02:36:24.884Z,12.52
2023-04-29T02:46:26.847Z,13.18
2023-04-29T02:56:31.170Z,12.55
2023-04-29T03:06:33.209Z,12.75
2023-04-29T03:16:35.512Z,12.15
2023-04-29T03:26:37.458Z,12.10
2023-04-29T03:36:41.379Z,12.95
2023-04-29T03:46:43.293Z,11.85
2023-04-29T03:56:46.331Z,11.25
2023-04-29T04:06:52.094Z,11.05
2023-04-29T04:16:57.153Z,10.73
2023-04-29T04:26:59.110Z,10.68
2023-04-29T04:37:02.332Z,9.40
2023-04-29T04:47:04.332Z,9.65
2023-04-29T04:57:07.454Z,8.85
2023-04-29T05:07:11.112Z,8.60
2023-04-29T05:17:28.357Z,9.60
2023-04-29T05:27:37.118Z,8.52
2023-04-29T05:37:44.859Z,8.45
2023-04-29T05:47:52.988Z,7.80
2023-04-29T05:57:54.949Z,7.15
2023-04-29T06:08:09.108Z,8.02
2023-04-29T06:18:12.093Z,7.80
2023-04-29T06:28:13.983Z,6.65
2023-04-29T06:38:22.012Z,6.93
2023-04-29T06:48:24.181Z,6.00
2023-04-29T06:58:34.698Z,6.15
2023-04-29T07:08:36.556Z,5.93
2023-04-29T07:18:38.405Z,5.32
2023-04-29T07:28:40.566Z,4.97
2023-04-29T07:38:42.745Z,4.90
2023-04-29T07:48:45.799Z,4.72
2023-04-29T07:59:13.142Z,5.10
2023-04-29T08:09:20.052Z,4.00
2023-04-29T08:19:22.101Z,4.80
2023-04-29T08:29:25.437Z,4.90
2023-04-29T08:39:29.653Z,4.07
2023-04-29T08:49:33.748Z,4.13
2023-04-29T08:59:42.524Z,3.80
2023-04-29T09:09:44.890Z,4.15
2023-04-29T09:19:47.061Z,4.45
2023-04-29T09:30:02.398Z,3.95
2023-04-29T09:40:04.764Z,3.70
2023-04-29T09:50:19.831Z,3.00
2023-04-29T10:00:48.172Z,4.13
2023-04-29T10:10:57.801Z,4.57
2023-04-29T10:21:15.243Z,4.10
2023-04-29T10:31:18.324Z,4.10
2023-04-29T10:41:27.152Z,3.72
2023-04-29T10:51:34.130Z,3.67
2023-04-29T11:01:54.856Z,3.58
2023-04-29T11:12:05.735Z,2.25
2023-04-29T11:22:19.763Z,1.80
2023-04-29T11:32:23.448Z,3.17
2023-04-29T11:42:34.461Z,2.97
2023-04-29T11:52:43.352Z,3.05
2023-04-29T12:02:47.472Z,3.28
2023-04-29T12:13:10.565Z,2.17
2023-04-29T12:23:16.504Z,4.13
2023-04-29T12:33:27.401Z,3.33
2023-04-29T12:43:30.903Z,3.22
2023-04-29T12:53:33.177Z,3.92
2023-04-29T13:03:37.366Z,4.45
2023-04-29T13:13:39.451Z,4.35
2023-04-29T13:23:41.362Z,5.30
2023-04-29T13:33:44.272Z,5.45
2023-04-29T13:44:04.910Z,4.80
2023-04-29T13:54:50.091Z,4.32
2023-04-29T14:04:43.692Z,4.40
2023-04-29T14:14:45.921Z,3.63
2023-04-29T14:24:48.998Z,3.55
2023-04-29T14:34:52.099Z,3.05
2023-04-29T14:44:54.895Z,2.63
2023-04-29T14:54:58.050Z,4.20
2023-04-29T15:05:01.362Z,4.38
2023-04-29T15:15:05.107Z,2.25
2023-04-29T15:25:08.284Z,3.58
2023-04-29T15:35:12.972Z,3.83
2023-04-29T15:45:14.991Z,3.00
2023-04-29T15:55:18.608Z,3.42
2023-04-29T16:05:21.857Z,3.70
2023-04-29T16:15:24.190Z,3.03
2023-04-29T16:25:26.306Z,2.92
2023-04-29T16:35:31.098Z,3.70
2023-04-29T16:45:33.573Z,4.20
2023-04-29T16:55:36.017Z,4.60
2023-04-29T17:05:39.294Z,5.15
2023-04-29T17:15:41.409Z,4.95
2023-04-29T17:25:47.172Z,6.80
2023-04-29T17:35:49.410Z,6.32
2023-04-29T17:45:53.867Z,7.20
2023-04-29T17:56:02.520Z,5.55
2023-04-29T18:06:06.320Z,7.38
2023-04-29T18:16:09.677Z,7.93
2023-04-29T18:26:12.447Z,5.97
2023-04-29T18:36:14.821Z,7.00
2023-04-29T18:46:18.139Z,8.98
2023-04-29T18:56:20.329Z,8.80
2023-04-29T19:06:25.422Z,9.30
2023-04-29T19:16:29.650Z,10.52
2023-04-29T19:26:34.974Z,10.55
2023-04-29T19:36:38.634Z,12.48
2023-04-29T19:46:41.436Z,9.27
2023-04-29T19:56:43.692Z,16.45
2023-04-29T20:06:46.458Z,12.02
2023-04-29T20:16:48.701Z,10.75
2023-04-29T20:26:52.486Z,11.63
2023-04-29T20:36:55.771Z,12.93
2023-04-29T20:46:58.857Z,12.32
2023-04-29T20:57:01.895Z,13.15
2023-04-29T21:07:07.212Z,14.15
2023-04-29T21:17:09.252Z,15.18
2023-04-29T21:27:17.304Z,15.30
2023-04-29T21:37:44.184Z,13.25
2023-04-29T21:47:51.568Z,14.30
2023-04-29T21:57:59.566Z,16.27
2023-04-29T22:08:03.367Z,14.90
2023-04-29T22:18:05.464Z,15.02
2023-04-29T22:28:09.466Z,14.65
2023-04-29T22:38:17.185Z,16.02
2023-04-29T22:48:20.800Z,14.48
2023-04-29T22:58:27.335Z,16.90
2023-04-29T23:08:30.365Z,15.13
2023-04-29T23:18:32.364Z,16.40
2023-04-29T23:28:34.297Z,17.08
2023-04-29T23:38:37.206Z,16.88
2023-04-29T23:48:39.115Z,16.52
2023-04-29T23:58:42.116Z,17.20
